Hauptseite
METAR-TAF:

METAR-TAF

Flughäfen :

Bagdad, Irak

Flughafen Bagdad

Breite: 33-15-45N, Länge: 44-14-04E, Höhe: 35 m

Beobachtung

Neuester Wetterbericht von vor 42 Minuten, um 02:00 UTC
Wind 12 kt aus Nordwest
Temperatur 32°C
Luftfeuchtigkeit 26%
Luftdruck 1000 hPa
Sichtweite 10 km oder mehr
keine Wolken unter 1500 m und keine Kumulonimbus oder Gewitterwolken

METAR: ORBI 280200Z 31012KT CAVOK 32/10 Q1000 NOSIG

Zeit: 05:42 (02:42 UTC)

Prognose

Neuester Wetterbericht von vor 4 Stunden und 42 Minuten, um 22:00 UTC
Gültige Prognose vom 28 um 00 UTC bis 28 um 24 UTC
Wind 6 kt aus Nord/Nordwest
Sichtweite 10 km oder mehr
keine Wolken unter 1500 m und keine Kumulonimbus oder Gewitterwolken

TAF: ORBI 272200Z 2800/2824 34006KT CAVOK

Wetterbeobachtungen und Prognosen von mehr als 4000 Flughäfen (METAR und TAF Bericht).

Die verfügbaren Stationen werden durch gelbe und rote Markierungen auf der Karte dargestellt.

Führen Sie die Maus auf sie, um den Namen der Station zu sehen.

Darauf klicken, um die Beobachtung von Wetterbeobachtungen und Prognosen zu sehen.

Um die Karte zu ändern : klicken Sie auf den grünen Tasten mit einem schwarzen Kreuz Zum Vergrößern, auf den grünen Button mit einem Gedankenstrich zu verkleinern, oder auf die grünen Pfeile für benachbarte Karten.


METAR-TAF: